aviador You're here:

YNTN Decoded Metar

in
Report Time2018-07-19 18:00:00
UTC Time2018-07-19 19:20:01
Flight Rules Old
Wind230° at 08 kt
W.Decomp.*RWY 14: 8.0 kt RCW
W.Rank230° ranks 31
Current wind is above 230° avg. (5.3)
Visibility9999 m
Phenomena:N/A
Clouds:N/A
Expected CloudBase > 800 ft AGL from Temp-Dew spread
CeilingNone
Temp21°C
Dew Point19°C (88% RH)
QNH1015 hPa
Raw Report
METAR YNTN 191800Z AUTO 23008KT 9999 // NCD 21/19 Q1015=

Extra information for YNTN:More info

Social comments